sensor_id;sensor_type;location;lat;lon;timestamp;P1;durP1;ratioP1;P2;durP2;ratioP2
36411;SDS011;22445;52.100;5.176;2023-08-24T00:00:37;4.90;;;4.35;;
36411;SDS011;22445;52.100;5.176;2023-08-24T00:03:03;9.45;;;5.35;;
36411;SDS011;22445;52.100;5.176;2023-08-24T00:05:32;7.68;;;3.97;;
36411;SDS011;22445;52.100;5.176;2023-08-24T00:07:58;6.30;;;4.72;;
36411;SDS011;22445;52.100;5.176;2023-08-24T00:10:25;6.57;;;4.78;;
36411;SDS011;22445;52.100;5.176;2023-08-24T00:12:51;5.88;;;4.55;;
36411;SDS011;22445;52.100;5.176;2023-08-24T00:15:16;6.35;;;4.72;;
36411;SDS011;22445;52.100;5.176;2023-08-24T00:17:42;6.28;;;4.63;;
36411;SDS011;22445;52.100;5.176;2023-08-24T00:20:08;6.50;;;4.47;;
36411;SDS011;22445;52.100;5.176;2023-08-24T00:22:39;7.07;;;4.20;;
36411;SDS011;22445;52.100;5.176;2023-08-24T00:25:06;6.75;;;4.70;;
36411;SDS011;22445;52.100;5.176;2023-08-24T00:27:32;7.90;;;4.40;;
36411;SDS011;22445;52.100;5.176;2023-08-24T00:29:58;7.78;;;4.90;;
36411;SDS011;22445;52.100;5.176;2023-08-24T00:32:24;6.45;;;4.53;;
36411;SDS011;22445;52.100;5.176;2023-08-24T00:34:50;5.65;;;4.43;;
36411;SDS011;22445;52.100;5.176;2023-08-24T00:37:15;7.70;;;5.28;;
36411;SDS011;22445;52.100;5.176;2023-08-24T00:39:41;7.18;;;5.93;;
36411;SDS011;22445;52.100;5.176;2023-08-24T00:42:09;7.90;;;5.45;;
36411;SDS011;22445;52.100;5.176;2023-08-24T00:44:39;7.72;;;5.97;;
36411;SDS011;22445;52.100;5.176;2023-08-24T00:47:06;8.57;;;6.25;;
36411;SDS011;22445;52.100;5.176;2023-08-24T00:49:33;10.63;;;5.93;;
36411;SDS011;22445;52.100;5.176;2023-08-24T00:51:58;11.20;;;5.95;;
36411;SDS011;22445;52.100;5.176;2023-08-24T00:54:25;7.90;;;5.10;;
36411;SDS011;22445;52.100;5.176;2023-08-24T00:56:51;8.85;;;5.55;;
36411;SDS011;22445;52.100;5.176;2023-08-24T00:59:18;5.85;;;4.88;;
36411;SDS011;22445;52.100;5.176;2023-08-24T01:01:44;7.57;;;5.68;;
36411;SDS011;22445;52.100;5.176;2023-08-24T01:04:10;7.32;;;5.20;;
36411;SDS011;22445;52.100;5.176;2023-08-24T01:06:36;5.43;;;4.68;;
36411;SDS011;22445;52.100;5.176;2023-08-24T01:09:02;11.23;;;4.55;;
36411;SDS011;22445;52.100;5.176;2023-08-24T01:17:33;7.32;;;5.25;;
36411;SDS011;22445;52.100;5.176;2023-08-24T01:20:01;5.45;;;4.72;;
36411;SDS011;22445;52.100;5.176;2023-08-24T01:22:33;6.53;;;5.30;;
36411;SDS011;22445;52.100;5.176;2023-08-24T01:27:49;7.00;;;5.30;;
36411;SDS011;22445;52.100;5.176;2023-08-24T01:30:15;8.50;;;4.63;;
36411;SDS011;22445;52.100;5.176;2023-08-24T01:32:43;6.93;;;5.22;;
36411;SDS011;22445;52.100;5.176;2023-08-24T01:35:09;7.43;;;5.05;;
36411;SDS011;22445;52.100;5.176;2023-08-24T01:37:36;7.82;;;5.78;;
36411;SDS011;22445;52.100;5.176;2023-08-24T01:40:10;7.65;;;5.53;;
36411;SDS011;22445;52.100;5.176;2023-08-24T01:45:31;7.38;;;5.50;;
36411;SDS011;22445;52.100;5.176;2023-08-24T01:48:02;10.40;;;6.68;;
36411;SDS011;22445;52.100;5.176;2023-08-24T01:50:29;8.57;;;6.03;;
36411;SDS011;22445;52.100;5.176;2023-08-24T01:52:55;8.23;;;4.78;;
36411;SDS011;22445;52.100;5.176;2023-08-24T01:55:21;7.00;;;4.20;;
36411;SDS011;22445;52.100;5.176;2023-08-24T01:57:47;5.97;;;5.38;;
36411;SDS011;22445;52.100;5.176;2023-08-24T02:00:13;8.77;;;5.97;;
36411;SDS011;22445;52.100;5.176;2023-08-24T02:02:41;7.63;;;5.47;;
36411;SDS011;22445;52.100;5.176;2023-08-24T02:05:08;9.02;;;6.20;;
36411;SDS011;22445;52.100;5.176;2023-08-24T02:07:34;10.07;;;5.38;;
36411;SDS011;22445;52.100;5.176;2023-08-24T02:09:59;5.85;;;5.32;;
36411;SDS011;22445;52.100;5.176;2023-08-24T02:12:25;8.98;;;6.10;;
36411;SDS011;22445;52.100;5.176;2023-08-24T02:17:32;10.70;;;6.65;;
36411;SDS011;22445;52.100;5.176;2023-08-24T02:22:50;9.43;;;5.72;;
36411;SDS011;22445;52.100;5.176;2023-08-24T02:25:16;7.70;;;5.78;;
36411;SDS011;22445;52.100;5.176;2023-08-24T02:27:42;9.60;;;6.85;;
36411;SDS011;22445;52.100;5.176;2023-08-24T02:30:08;13.02;;;7.00;;
36411;SDS011;22445;52.100;5.176;2023-08-24T02:35:08;8.73;;;6.93;;
36411;SDS011;22445;52.100;5.176;2023-08-24T02:37:33;9.65;;;6.97;;
36411;SDS011;22445;52.100;5.176;2023-08-24T02:42:34;8.70;;;7.38;;
36411;SDS011;22445;52.100;5.176;2023-08-24T02:50:06;16.30;;;7.95;;
36411;SDS011;22445;52.100;5.176;2023-08-24T02:52:39;13.70;;;9.15;;
36411;SDS011;22445;52.100;5.176;2023-08-24T02:57:40;11.40;;;8.98;;
36411;SDS011;22445;52.100;5.176;2023-08-24T03:00:05;9.93;;;7.82;;
36411;SDS011;22445;52.100;5.176;2023-08-24T03:02:32;8.77;;;7.53;;
36411;SDS011;22445;52.100;5.176;2023-08-24T03:04:57;12.27;;;8.63;;
36411;SDS011;22445;52.100;5.176;2023-08-24T03:07:24;8.65;;;7.80;;
36411;SDS011;22445;52.100;5.176;2023-08-24T03:09:49;12.00;;;8.48;;
36411;SDS011;22445;52.100;5.176;2023-08-24T03:12:15;13.52;;;8.70;;
36411;SDS011;22445;52.100;5.176;2023-08-24T03:14:41;13.02;;;8.65;;
36411;SDS011;22445;52.100;5.176;2023-08-24T03:17:06;11.98;;;8.45;;
36411;SDS011;22445;52.100;5.176;2023-08-24T03:19:32;9.70;;;8.10;;
36411;SDS011;22445;52.100;5.176;2023-08-24T03:21:58;11.45;;;8.65;;
36411;SDS011;22445;52.100;5.176;2023-08-24T03:24:24;15.60;;;9.30;;
36411;SDS011;22445;52.100;5.176;2023-08-24T03:26:49;13.27;;;9.45;;
36411;SDS011;22445;52.100;5.176;2023-08-24T03:29:15;15.30;;;10.02;;
36411;SDS011;22445;52.100;5.176;2023-08-24T03:31:41;14.95;;;9.63;;
36411;SDS011;22445;52.100;5.176;2023-08-24T03:34:06;15.40;;;10.18;;
36411;SDS011;22445;52.100;5.176;2023-08-24T03:36:32;14.38;;;9.18;;
36411;SDS011;22445;52.100;5.176;2023-08-24T03:38:58;13.43;;;9.52;;
36411;SDS011;22445;52.100;5.176;2023-08-24T03:41:23;12.07;;;9.63;;
36411;SDS011;22445;52.100;5.176;2023-08-24T03:43:49;11.15;;;9.68;;
36411;SDS011;22445;52.100;5.176;2023-08-24T03:46:15;14.25;;;10.93;;
36411;SDS011;22445;52.100;5.176;2023-08-24T03:48:41;16.20;;;10.85;;
36411;SDS011;22445;52.100;5.176;2023-08-24T03:56:34;16.08;;;11.15;;
36411;SDS011;22445;52.100;5.176;2023-08-24T03:59:00;17.17;;;11.07;;
36411;SDS011;22445;52.100;5.176;2023-08-24T04:01:25;14.73;;;10.43;;
36411;SDS011;22445;52.100;5.176;2023-08-24T04:03:51;17.17;;;10.43;;
36411;SDS011;22445;52.100;5.176;2023-08-24T04:06:17;13.10;;;10.07;;
36411;SDS011;22445;52.100;5.176;2023-08-24T04:08:44;13.20;;;9.65;;
36411;SDS011;22445;52.100;5.176;2023-08-24T04:11:10;13.27;;;9.93;;
36411;SDS011;22445;52.100;5.176;2023-08-24T04:13:36;16.88;;;9.75;;
36411;SDS011;22445;52.100;5.176;2023-08-24T04:16:01;14.45;;;10.35;;
36411;SDS011;22445;52.100;5.176;2023-08-24T04:18:29;17.23;;;10.48;;
36411;SDS011;22445;52.100;5.176;2023-08-24T04:20:55;16.25;;;11.48;;
36411;SDS011;22445;52.100;5.176;2023-08-24T04:23:24;13.68;;;10.90;;
36411;SDS011;22445;52.100;5.176;2023-08-24T04:25:53;17.40;;;11.20;;
36411;SDS011;22445;52.100;5.176;2023-08-24T04:28:19;14.77;;;10.00;;
36411;SDS011;22445;52.100;5.176;2023-08-24T04:30:52;13.65;;;11.18;;
36411;SDS011;22445;52.100;5.176;2023-08-24T04:33:19;15.88;;;11.43;;
36411;SDS011;22445;52.100;5.176;2023-08-24T04:35:46;15.48;;;10.63;;
36411;SDS011;22445;52.100;5.176;2023-08-24T04:38:13;15.88;;;11.63;;
36411;SDS011;22445;52.100;5.176;2023-08-24T04:40:45;13.88;;;11.30;;
36411;SDS011;22445;52.100;5.176;2023-08-24T04:43:32;14.60;;;11.73;;
36411;SDS011;22445;52.100;5.176;2023-08-24T04:45:58;17.13;;;11.65;;
36411;SDS011;22445;52.100;5.176;2023-08-24T04:48:24;19.50;;;11.23;;
36411;SDS011;22445;52.100;5.176;2023-08-24T04:50:58;15.57;;;11.38;;
36411;SDS011;22445;52.100;5.176;2023-08-24T04:53:25;14.38;;;11.52;;
36411;SDS011;22445;52.100;5.176;2023-08-24T04:55:51;16.52;;;10.95;;
36411;SDS011;22445;52.100;5.176;2023-08-24T04:58:17;16.15;;;11.85;;
36411;SDS011;22445;52.100;5.176;2023-08-24T05:00:43;16.83;;;12.15;;
36411;SDS011;22445;52.100;5.176;2023-08-24T05:03:08;15.52;;;12.07;;
36411;SDS011;22445;52.100;5.176;2023-08-24T05:05:34;15.35;;;11.70;;
36411;SDS011;22445;52.100;5.176;2023-08-24T05:08:01;13.52;;;11.60;;
36411;SDS011;22445;52.100;5.176;2023-08-24T05:10:34;14.32;;;11.85;;
36411;SDS011;22445;52.100;5.176;2023-08-24T05:13:00;15.95;;;11.63;;
36411;SDS011;22445;52.100;5.176;2023-08-24T05:15:26;18.85;;;12.50;;
36411;SDS011;22445;52.100;5.176;2023-08-24T05:17:52;16.63;;;13.18;;
36411;SDS011;22445;52.100;5.176;2023-08-24T05:20:20;16.90;;;12.02;;
36411;SDS011;22445;52.100;5.176;2023-08-24T05:22:46;16.55;;;12.30;;
36411;SDS011;22445;52.100;5.176;2023-08-24T05:25:12;18.88;;;14.43;;
36411;SDS011;22445;52.100;5.176;2023-08-24T05:27:38;19.50;;;13.95;;
36411;SDS011;22445;52.100;5.176;2023-08-24T05:30:04;22.98;;;15.45;;
36411;SDS011;22445;52.100;5.176;2023-08-24T05:32:31;21.52;;;15.43;;
36411;SDS011;22445;52.100;5.176;2023-08-24T05:34:57;22.48;;;16.08;;
36411;SDS011;22445;52.100;5.176;2023-08-24T05:37:23;21.33;;;14.85;;
36411;SDS011;22445;52.100;5.176;2023-08-24T05:39:49;22.85;;;15.60;;
36411;SDS011;22445;52.100;5.176;2023-08-24T05:42:14;22.77;;;14.20;;
36411;SDS011;22445;52.100;5.176;2023-08-24T05:44:40;19.15;;;15.60;;
36411;SDS011;22445;52.100;5.176;2023-08-24T05:47:06;18.67;;;14.35;;
36411;SDS011;22445;52.100;5.176;2023-08-24T05:49:32;18.15;;;13.15;;
36411;SDS011;22445;52.100;5.176;2023-08-24T05:51:58;18.45;;;13.05;;
36411;SDS011;22445;52.100;5.176;2023-08-24T05:54:23;18.58;;;13.10;;
36411;SDS011;22445;52.100;5.176;2023-08-24T05:56:49;16.02;;;12.48;;
36411;SDS011;22445;52.100;5.176;2023-08-24T06:01:48;14.23;;;11.07;;
36411;SDS011;22445;52.100;5.176;2023-08-24T06:04:14;21.08;;;12.10;;
36411;SDS011;22445;52.100;5.176;2023-08-24T06:06:40;12.65;;;11.10;;
36411;SDS011;22445;52.100;5.176;2023-08-24T06:11:35;11.80;;;10.40;;
36411;SDS011;22445;52.100;5.176;2023-08-24T06:14:01;14.55;;;10.30;;
36411;SDS011;22445;52.100;5.176;2023-08-24T06:16:27;10.75;;;9.25;;
36411;SDS011;22445;52.100;5.176;2023-08-24T06:18:53;12.27;;;9.00;;
36411;SDS011;22445;52.100;5.176;2023-08-24T06:21:19;14.15;;;9.23;;
36411;SDS011;22445;52.100;5.176;2023-08-24T06:26:16;10.73;;;8.73;;
36411;SDS011;22445;52.100;5.176;2023-08-24T06:28:42;13.55;;;8.43;;
36411;SDS011;22445;52.100;5.176;2023-08-24T06:31:08;11.93;;;8.82;;
36411;SDS011;22445;52.100;5.176;2023-08-24T06:33:34;8.57;;;7.53;;
36411;SDS011;22445;52.100;5.176;2023-08-24T06:36:01;10.35;;;8.07;;
36411;SDS011;22445;52.100;5.176;2023-08-24T06:38:27;11.18;;;7.43;;
36411;SDS011;22445;52.100;5.176;2023-08-24T06:40:54;18.45;;;8.52;;
36411;SDS011;22445;52.100;5.176;2023-08-24T06:43:19;13.88;;;8.65;;
36411;SDS011;22445;52.100;5.176;2023-08-24T06:45:45;9.00;;;7.50;;
36411;SDS011;22445;52.100;5.176;2023-08-24T06:48:11;10.77;;;8.18;;
36411;SDS011;22445;52.100;5.176;2023-08-24T06:50:36;13.52;;;7.40;;
36411;SDS011;22445;52.100;5.176;2023-08-24T06:53:05;11.02;;;8.60;;
36411;SDS011;22445;52.100;5.176;2023-08-24T06:55:30;8.00;;;7.20;;
36411;SDS011;22445;52.100;5.176;2023-08-24T06:57:56;11.13;;;8.20;;
36411;SDS011;22445;52.100;5.176;2023-08-24T07:00:22;9.40;;;7.47;;
36411;SDS011;22445;52.100;5.176;2023-08-24T07:02:50;10.25;;;7.95;;
36411;SDS011;22445;52.100;5.176;2023-08-24T07:05:16;10.07;;;7.45;;
36411;SDS011;22445;52.100;5.176;2023-08-24T07:07:44;11.55;;;8.00;;
36411;SDS011;22445;52.100;5.176;2023-08-24T07:10:11;9.25;;;7.47;;
36411;SDS011;22445;52.100;5.176;2023-08-24T07:12:37;11.20;;;7.47;;
36411;SDS011;22445;52.100;5.176;2023-08-24T07:15:04;10.00;;;7.10;;
36411;SDS011;22445;52.100;5.176;2023-08-24T07:17:30;8.27;;;7.35;;
36411;SDS011;22445;52.100;5.176;2023-08-24T07:22:31;9.48;;;6.88;;
36411;SDS011;22445;52.100;5.176;2023-08-24T07:24:57;8.38;;;6.43;;
36411;SDS011;22445;52.100;5.176;2023-08-24T07:27:23;12.35;;;7.65;;
36411;SDS011;22445;52.100;5.176;2023-08-24T07:29:49;8.02;;;6.63;;
36411;SDS011;22445;52.100;5.176;2023-08-24T07:32:14;8.63;;;6.18;;
36411;SDS011;22445;52.100;5.176;2023-08-24T07:34:40;11.38;;;7.03;;
36411;SDS011;22445;52.100;5.176;2023-08-24T07:37:06;7.68;;;6.88;;
36411;SDS011;22445;52.100;5.176;2023-08-24T07:39:32;7.32;;;5.95;;
36411;SDS011;22445;52.100;5.176;2023-08-24T07:41:58;10.30;;;6.25;;
36411;SDS011;22445;52.100;5.176;2023-08-24T07:44:23;8.20;;;6.53;;
36411;SDS011;22445;52.100;5.176;2023-08-24T07:46:49;6.93;;;6.10;;
36411;SDS011;22445;52.100;5.176;2023-08-24T07:49:14;10.43;;;6.55;;
36411;SDS011;22445;52.100;5.176;2023-08-24T07:51:40;9.35;;;6.38;;
36411;SDS011;22445;52.100;5.176;2023-08-24T07:54:08;8.65;;;6.20;;
36411;SDS011;22445;52.100;5.176;2023-08-24T07:56:34;8.57;;;6.75;;
36411;SDS011;22445;52.100;5.176;2023-08-24T07:59:00;7.00;;;6.20;;
36411;SDS011;22445;52.100;5.176;2023-08-24T08:01:26;9.45;;;6.00;;
36411;SDS011;22445;52.100;5.176;2023-08-24T08:03:52;7.22;;;5.50;;
36411;SDS011;22445;52.100;5.176;2023-08-24T08:06:18;10.93;;;5.63;;
36411;SDS011;22445;52.100;5.176;2023-08-24T08:08:43;9.52;;;6.00;;
36411;SDS011;22445;52.100;5.176;2023-08-24T08:11:10;7.95;;;5.38;;
36411;SDS011;22445;52.100;5.176;2023-08-24T08:13:36;7.13;;;4.93;;
36411;SDS011;22445;52.100;5.176;2023-08-24T08:16:05;7.30;;;5.28;;
36411;SDS011;22445;52.100;5.176;2023-08-24T08:18:31;7.82;;;5.20;;
36411;SDS011;22445;52.100;5.176;2023-08-24T08:20:57;7.60;;;5.28;;
36411;SDS011;22445;52.100;5.176;2023-08-24T08:23:23;7.38;;;4.75;;
36411;SDS011;22445;52.100;5.176;2023-08-24T08:25:48;8.32;;;5.22;;
36411;SDS011;22445;52.100;5.176;2023-08-24T08:28:14;6.85;;;4.82;;
36411;SDS011;22445;52.100;5.176;2023-08-24T08:30:40;5.68;;;5.15;;
36411;SDS011;22445;52.100;5.176;2023-08-24T08:33:05;7.85;;;5.43;;
36411;SDS011;22445;52.100;5.176;2023-08-24T08:35:31;8.15;;;6.22;;
36411;SDS011;22445;52.100;5.176;2023-08-24T08:37:56;8.23;;;5.57;;
36411;SDS011;22445;52.100;5.176;2023-08-24T08:40:23;6.70;;;5.30;;
36411;SDS011;22445;52.100;5.176;2023-08-24T08:42:58;8.43;;;5.97;;
36411;SDS011;22445;52.100;5.176;2023-08-24T08:45:26;9.85;;;6.05;;
36411;SDS011;22445;52.100;5.176;2023-08-24T08:47:57;8.88;;;6.40;;
36411;SDS011;22445;52.100;5.176;2023-08-24T08:50:24;9.82;;;6.47;;
36411;SDS011;22445;52.100;5.176;2023-08-24T08:52:50;7.80;;;6.75;;
36411;SDS011;22445;52.100;5.176;2023-08-24T08:55:16;7.50;;;6.70;;
36411;SDS011;22445;52.100;5.176;2023-08-24T08:57:42;10.70;;;7.15;;
36411;SDS011;22445;52.100;5.176;2023-08-24T09:00:11;10.40;;;7.20;;
36411;SDS011;22445;52.100;5.176;2023-08-24T09:02:42;11.77;;;7.45;;
36411;SDS011;22445;52.100;5.176;2023-08-24T09:05:10;10.70;;;7.22;;
36411;SDS011;22445;52.100;5.176;2023-08-24T09:07:36;7.60;;;6.50;;
36411;SDS011;22445;52.100;5.176;2023-08-24T09:10:04;8.52;;;6.28;;
36411;SDS011;22445;52.100;5.176;2023-08-24T09:12:32;9.98;;;6.53;;
36411;SDS011;22445;52.100;5.176;2023-08-24T09:14:58;9.57;;;6.35;;
36411;SDS011;22445;52.100;5.176;2023-08-24T09:17:24;6.53;;;5.65;;
36411;SDS011;22445;52.100;5.176;2023-08-24T09:19:50;10.20;;;5.63;;
36411;SDS011;22445;52.100;5.176;2023-08-24T09:22:19;7.95;;;5.47;;
36411;SDS011;22445;52.100;5.176;2023-08-24T09:24:45;8.63;;;5.38;;
36411;SDS011;22445;52.100;5.176;2023-08-24T09:27:19;9.07;;;5.60;;
36411;SDS011;22445;52.100;5.176;2023-08-24T09:29:52;8.95;;;5.70;;
36411;SDS011;22445;52.100;5.176;2023-08-24T09:32:21;7.95;;;6.20;;
36411;SDS011;22445;52.100;5.176;2023-08-24T09:34:54;6.38;;;4.72;;
36411;SDS011;22445;52.100;5.176;2023-08-24T09:37:19;5.40;;;4.53;;
36411;SDS011;22445;52.100;5.176;2023-08-24T09:39:45;9.02;;;4.50;;
36411;SDS011;22445;52.100;5.176;2023-08-24T09:42:11;5.93;;;4.20;;
36411;SDS011;22445;52.100;5.176;2023-08-24T09:44:37;4.93;;;3.90;;
36411;SDS011;22445;52.100;5.176;2023-08-24T09:47:10;5.97;;;4.85;;
36411;SDS011;22445;52.100;5.176;2023-08-24T09:49:38;4.75;;;3.97;;
36411;SDS011;22445;52.100;5.176;2023-08-24T09:52:07;9.30;;;4.82;;
36411;SDS011;22445;52.100;5.176;2023-08-24T09:54:36;8.23;;;4.80;;
36411;SDS011;22445;52.100;5.176;2023-08-24T09:57:02;6.38;;;4.25;;
36411;SDS011;22445;52.100;5.176;2023-08-24T09:59:28;6.25;;;4.43;;
36411;SDS011;22445;52.100;5.176;2023-08-24T10:01:56;4.65;;;3.20;;
36411;SDS011;22445;52.100;5.176;2023-08-24T10:04:23;6.20;;;4.05;;
36411;SDS011;22445;52.100;5.176;2023-08-24T10:07:00;6.47;;;4.28;;
36411;SDS011;22445;52.100;5.176;2023-08-24T10:10:15;5.47;;;4.03;;
36411;SDS011;22445;52.100;5.176;2023-08-24T10:12:24;6.93;;;3.88;;
36411;SDS011;22445;52.100;5.176;2023-08-24T10:17:41;7.20;;;4.60;;
36411;SDS011;22445;52.100;5.176;2023-08-24T10:20:07;6.40;;;4.47;;
36411;SDS011;22445;52.100;5.176;2023-08-24T10:22:35;8.48;;;5.47;;
36411;SDS011;22445;52.100;5.176;2023-08-24T10:25:02;6.47;;;5.50;;
36411;SDS011;22445;52.100;5.176;2023-08-24T10:27:28;6.97;;;5.88;;
36411;SDS011;22445;52.100;5.176;2023-08-24T10:29:55;8.98;;;5.95;;
36411;SDS011;22445;52.100;5.176;2023-08-24T10:32:21;5.75;;;5.15;;
36411;SDS011;22445;52.100;5.176;2023-08-24T10:34:48;8.23;;;5.60;;
36411;SDS011;22445;52.100;5.176;2023-08-24T10:37:13;12.30;;;5.95;;
36411;SDS011;22445;52.100;5.176;2023-08-24T10:39:45;6.20;;;4.55;;
36411;SDS011;22445;52.100;5.176;2023-08-24T10:42:11;9.57;;;5.57;;
36411;SDS011;22445;52.100;5.176;2023-08-24T10:44:38;7.07;;;5.32;;
36411;SDS011;22445;52.100;5.176;2023-08-24T10:47:05;9.00;;;7.47;;
36411;SDS011;22445;52.100;5.176;2023-08-24T10:52:42;12.93;;;9.40;;
36411;SDS011;22445;52.100;5.176;2023-08-24T10:57:59;15.93;;;10.25;;
36411;SDS011;22445;52.100;5.176;2023-08-24T11:00:28;15.93;;;11.80;;
36411;SDS011;22445;52.100;5.176;2023-08-24T11:02:55;13.43;;;10.55;;
36411;SDS011;22445;52.100;5.176;2023-08-24T11:05:22;11.48;;;10.30;;
36411;SDS011;22445;52.100;5.176;2023-08-24T11:13:27;11.80;;;10.00;;
36411;SDS011;22445;52.100;5.176;2023-08-24T11:15:52;13.45;;;10.48;;
36411;SDS011;22445;52.100;5.176;2023-08-24T11:21:08;13.95;;;10.73;;
36411;SDS011;22445;52.100;5.176;2023-08-24T11:23:34;17.67;;;10.05;;
36411;SDS011;22445;52.100;5.176;2023-08-24T11:26:00;12.85;;;10.77;;
36411;SDS011;22445;52.100;5.176;2023-08-24T11:28:27;12.98;;;11.10;;
36411;SDS011;22445;52.100;5.176;2023-08-24T11:30:54;13.77;;;11.40;;
36411;SDS011;22445;52.100;5.176;2023-08-24T11:33:29;12.00;;;10.82;;
36411;SDS011;22445;52.100;5.176;2023-08-24T11:35:56;11.50;;;10.32;;
36411;SDS011;22445;52.100;5.176;2023-08-24T11:38:22;15.20;;;12.10;;
36411;SDS011;22445;52.100;5.176;2023-08-24T11:40:48;12.05;;;10.57;;
36411;SDS011;22445;52.100;5.176;2023-08-24T11:43:21;12.88;;;10.68;;
36411;SDS011;22445;52.100;5.176;2023-08-24T11:45:49;10.88;;;9.77;;
36411;SDS011;22445;52.100;5.176;2023-08-24T11:48:15;14.65;;;11.75;;
36411;SDS011;22445;52.100;5.176;2023-08-24T11:50:41;12.77;;;10.95;;
36411;SDS011;22445;52.100;5.176;2023-08-24T11:53:07;13.82;;;9.68;;
36411;SDS011;22445;52.100;5.176;2023-08-24T11:55:32;11.18;;;10.07;;
36411;SDS011;22445;52.100;5.176;2023-08-24T11:57:59;11.82;;;9.48;;
36411;SDS011;22445;52.100;5.176;2023-08-24T12:00:25;11.95;;;10.18;;
36411;SDS011;22445;52.100;5.176;2023-08-24T12:02:51;10.50;;;8.77;;
36411;SDS011;22445;52.100;5.176;2023-08-24T12:05:24;10.10;;;9.05;;
36411;SDS011;22445;52.100;5.176;2023-08-24T12:07:51;12.73;;;9.90;;
36411;SDS011;22445;52.100;5.176;2023-08-24T12:10:18;11.25;;;8.43;;
36411;SDS011;22445;52.100;5.176;2023-08-24T12:12:43;12.27;;;9.65;;
36411;SDS011;22445;52.100;5.176;2023-08-24T12:15:14;11.45;;;8.85;;
36411;SDS011;22445;52.100;5.176;2023-08-24T12:17:44;12.50;;;9.80;;
36411;SDS011;22445;52.100;5.176;2023-08-24T12:20:19;11.15;;;9.90;;
36411;SDS011;22445;52.100;5.176;2023-08-24T12:22:49;10.65;;;9.55;;
36411;SDS011;22445;52.100;5.176;2023-08-24T12:25:21;10.70;;;9.60;;
36411;SDS011;22445;52.100;5.176;2023-08-24T12:27:47;13.95;;;9.95;;
36411;SDS011;22445;52.100;5.176;2023-08-24T12:30:13;14.73;;;11.05;;
36411;SDS011;22445;52.100;5.176;2023-08-24T12:32:45;13.50;;;10.30;;
36411;SDS011;22445;52.100;5.176;2023-08-24T12:35:13;12.35;;;10.15;;
36411;SDS011;22445;52.100;5.176;2023-08-24T12:37:39;10.82;;;9.52;;
36411;SDS011;22445;52.100;5.176;2023-08-24T12:40:05;10.80;;;9.07;;
36411;SDS011;22445;52.100;5.176;2023-08-24T12:42:32;10.50;;;9.38;;
36411;SDS011;22445;52.100;5.176;2023-08-24T12:44:58;10.10;;;9.13;;
36411;SDS011;22445;52.100;5.176;2023-08-24T12:47:24;9.10;;;8.20;;
36411;SDS011;22445;52.100;5.176;2023-08-24T12:49:49;8.00;;;7.15;;
36411;SDS011;22445;52.100;5.176;2023-08-24T12:52:19;9.80;;;8.40;;
36411;SDS011;22445;52.100;5.176;2023-08-24T12:54:47;9.75;;;7.55;;
36411;SDS011;22445;52.100;5.176;2023-08-24T12:57:13;9.00;;;8.10;;
36411;SDS011;22445;52.100;5.176;2023-08-24T12:59:39;10.15;;;7.47;;
36411;SDS011;22445;52.100;5.176;2023-08-24T13:02:05;10.73;;;9.25;;
36411;SDS011;22445;52.100;5.176;2023-08-24T13:04:31;13.93;;;9.23;;
36411;SDS011;22445;52.100;5.176;2023-08-24T13:06:57;9.68;;;8.77;;
36411;SDS011;22445;52.100;5.176;2023-08-24T13:09:23;10.75;;;9.05;;
36411;SDS011;22445;52.100;5.176;2023-08-24T13:11:49;15.02;;;9.82;;
36411;SDS011;22445;52.100;5.176;2023-08-24T13:14:14;10.50;;;8.27;;
36411;SDS011;22445;52.100;5.176;2023-08-24T13:16:40;13.27;;;9.15;;
36411;SDS011;22445;52.100;5.176;2023-08-24T13:19:06;9.48;;;8.45;;
36411;SDS011;22445;52.100;5.176;2023-08-24T13:21:32;12.05;;;9.23;;
36411;SDS011;22445;52.100;5.176;2023-08-24T13:23:58;13.52;;;10.25;;
36411;SDS011;22445;52.100;5.176;2023-08-24T13:26:23;12.52;;;9.73;;
36411;SDS011;22445;52.100;5.176;2023-08-24T13:28:49;11.57;;;10.38;;
36411;SDS011;22445;52.100;5.176;2023-08-24T13:31:16;12.35;;;10.82;;
36411;SDS011;22445;52.100;5.176;2023-08-24T13:33:41;16.02;;;12.02;;
36411;SDS011;22445;52.100;5.176;2023-08-24T13:36:07;18.33;;;11.68;;
36411;SDS011;22445;52.100;5.176;2023-08-24T13:38:33;15.07;;;12.43;;
36411;SDS011;22445;52.100;5.176;2023-08-24T13:40:58;13.73;;;12.32;;
36411;SDS011;22445;52.100;5.176;2023-08-24T13:43:24;12.80;;;11.50;;
36411;SDS011;22445;52.100;5.176;2023-08-24T13:45:50;14.85;;;11.82;;
36411;SDS011;22445;52.100;5.176;2023-08-24T13:48:15;14.80;;;13.18;;
36411;SDS011;22445;52.100;5.176;2023-08-24T13:50:41;14.00;;;12.50;;
36411;SDS011;22445;52.100;5.176;2023-08-24T13:53:07;14.57;;;12.27;;
36411;SDS011;22445;52.100;5.176;2023-08-24T13:55:33;18.13;;;12.57;;
36411;SDS011;22445;52.100;5.176;2023-08-24T13:57:58;15.13;;;13.02;;
36411;SDS011;22445;52.100;5.176;2023-08-24T14:00:24;18.40;;;13.80;;
36411;SDS011;22445;52.100;5.176;2023-08-24T14:02:50;14.75;;;13.35;;
36411;SDS011;22445;52.100;5.176;2023-08-24T14:05:16;14.73;;;12.77;;
36411;SDS011;22445;52.100;5.176;2023-08-24T14:07:42;13.30;;;11.85;;
36411;SDS011;22445;52.100;5.176;2023-08-24T14:10:07;14.35;;;12.95;;
36411;SDS011;22445;52.100;5.176;2023-08-24T14:12:33;14.98;;;13.52;;
36411;SDS011;22445;52.100;5.176;2023-08-24T14:14:59;16.90;;;14.32;;
36411;SDS011;22445;52.100;5.176;2023-08-24T14:17:25;17.83;;;14.35;;
36411;SDS011;22445;52.100;5.176;2023-08-24T14:19:51;13.88;;;12.27;;
36411;SDS011;22445;52.100;5.176;2023-08-24T14:22:16;15.05;;;12.65;;
36411;SDS011;22445;52.100;5.176;2023-08-24T14:24:42;13.70;;;12.07;;
36411;SDS011;22445;52.100;5.176;2023-08-24T14:27:08;14.73;;;13.15;;
36411;SDS011;22445;52.100;5.176;2023-08-24T14:29:33;13.50;;;12.10;;
36411;SDS011;22445;52.100;5.176;2023-08-24T14:31:59;14.85;;;13.02;;
36411;SDS011;22445;52.100;5.176;2023-08-24T14:34:24;14.15;;;12.45;;
36411;SDS011;22445;52.100;5.176;2023-08-24T14:36:50;15.32;;;12.70;;
36411;SDS011;22445;52.100;5.176;2023-08-24T14:39:15;15.95;;;13.50;;
36411;SDS011;22445;52.100;5.176;2023-08-24T14:41:41;15.30;;;12.75;;
36411;SDS011;22445;52.100;5.176;2023-08-24T14:44:07;13.75;;;11.48;;
36411;SDS011;22445;52.100;5.176;2023-08-24T14:46:33;11.88;;;10.57;;
36411;SDS011;22445;52.100;5.176;2023-08-24T14:48:59;13.45;;;10.85;;
36411;SDS011;22445;52.100;5.176;2023-08-24T14:51:25;15.10;;;12.30;;
36411;SDS011;22445;52.100;5.176;2023-08-24T14:53:52;12.80;;;10.50;;
36411;SDS011;22445;52.100;5.176;2023-08-24T14:56:18;13.48;;;12.13;;
36411;SDS011;22445;52.100;5.176;2023-08-24T14:58:43;12.13;;;10.88;;
36411;SDS011;22445;52.100;5.176;2023-08-24T15:01:09;16.65;;;13.00;;
36411;SDS011;22445;52.100;5.176;2023-08-24T15:03:35;19.20;;;17.17;;
36411;SDS011;22445;52.100;5.176;2023-08-24T15:06:01;14.32;;;12.82;;
36411;SDS011;22445;52.100;5.176;2023-08-24T15:08:32;15.73;;;11.43;;
36411;SDS011;22445;52.100;5.176;2023-08-24T15:10:59;15.45;;;12.02;;
36411;SDS011;22445;52.100;5.176;2023-08-24T15:13:26;11.20;;;9.77;;
36411;SDS011;22445;52.100;5.176;2023-08-24T15:15:53;12.63;;;11.27;;
36411;SDS011;22445;52.100;5.176;2023-08-24T15:18:20;10.77;;;8.95;;
36411;SDS011;22445;52.100;5.176;2023-08-24T15:20:46;11.23;;;9.55;;
36411;SDS011;22445;52.100;5.176;2023-08-24T15:23:25;11.30;;;9.05;;
36411;SDS011;22445;52.100;5.176;2023-08-24T15:25:52;10.45;;;8.50;;
36411;SDS011;22445;52.100;5.176;2023-08-24T15:28:19;9.88;;;8.27;;
36411;SDS011;22445;52.100;5.176;2023-08-24T15:30:45;13.32;;;8.82;;
36411;SDS011;22445;52.100;5.176;2023-08-24T15:33:10;11.60;;;9.32;;
36411;SDS011;22445;52.100;5.176;2023-08-24T15:35:36;9.77;;;7.72;;